Armony — 5IM517 — position and weather

sailwx.info

Track history (hours):
 
Tides and Currents Weather Stations Pressure Air Temp Water Temp Dewpoint Dewpoint Depression Visibility Wind Speed Wind Dir Waves Ship Positions

Armony

Last reported at 2014-Dec-30 12:29 UTC. Time now 2015-Jan-30 04:58 UTC.
Position N 40°51' E 029°17'.
Warning: this ship's position is 30 days out of date.

Length 70 m; draft 4.6 m.

Type: Ship. MMSI: 677041700.

Date/timePositionNaut miles runAvg speedWind from/ knotsBaromVisibWave heightAir tempDewpointWater temp
2014-Dec-30 12:29N 40°51' E 029°17'0 0.0
2014-Dec-30 11:31N 40°51' E 029°17'0 0.0
2014-Dec-30 10:31N 40°51' E 029°17'0 0.0
2014-Dec-30 09:31N 40°51' E 029°17'0 0.0
2014-Dec-30 08:31N 40°51' E 029°17'0 0.0
2014-Dec-30 07:31N 40°51' E 029°17'0 0.0
2014-Dec-30 06:25N 40°51' E 029°17'0 0.0
2014-Dec-30 05:31N 40°51' E 029°17'0 0.0
2014-Dec-30 04:31N 40°51' E 029°17'0 0.0
2014-Dec-30 03:19N 40°51' E 029°17'0 0.0
2014-Dec-30 02:31N 40°51' E 029°17'0 0.0
2014-Dec-30 01:31N 40°51' E 029°17'0 0.0
2014-Dec-30 00:31N 40°51' E 029°17'0 0.0
2014-Dec-29 23:31N 40°51' E 029°17'0 0.0
2014-Dec-29 22:25N 40°51' E 029°17'0 0.0
2014-Dec-29 21:25N 40°51' E 029°17'0 0.0
2014-Dec-29 20:31N 40°51' E 029°17'0 0.0
2014-Dec-29 19:31N 40°51' E 029°17'0 0.0
2014-Dec-29 18:31N 40°51' E 029°17'0 0.0
2014-Dec-29 17:31N 40°51' E 029°17'0 0.0
2014-Dec-29 16:31N 40°51' E 029°17'0 0.0
2014-Dec-29 15:25N 40°51' E 029°17'0 0.0
2014-Dec-29 14:31N 40°51' E 029°17'0 0.0
2014-Dec-29 13:31N 40°51' E 029°17'0 0.0
2014-Dec-29 12:31N 40°51' E 029°17'0 0.0
2014-Dec-29 11:31N 40°51' E 029°17'0 0.0
2014-Dec-29 10:31N 40°51' E 029°17'0 0.0
2014-Dec-29 09:31N 40°51' E 029°17'0 0.0
2014-Dec-29 08:25N 40°51' E 029°17'3 0.1
2014-Dec-27 22:18N 40°50' E 029°14'0 0.0
2014-Dec-27 21:33N 40°50' E 029°14'0 0.0
2014-Dec-27 20:33N 40°50' E 029°14'0 0.0
2014-Dec-27 19:33N 40°50' E 029°14'0 0.0
2014-Dec-27 18:33N 40°50' E 029°14'0 0.0
2014-Dec-27 17:33N 40°50' E 029°14'0 0.0
2014-Dec-27 16:32N 40°50' E 029°14'0 0.3
2014-Dec-27 15:33N 40°50' E 029°14'3 3.1
2014-Dec-27 14:33N 40°50' E 029°10'3 3.4
2014-Dec-27 13:33N 40°49' E 029°05'3 3.1
2014-Dec-27 12:33N 40°50' E 029°01'2 1.5
2014-Dec-27 11:33N 40°51' E 029°00'3 2.6
2014-Dec-27 10:32N 40°53' E 028°58'4 4.2
2014-Dec-27 09:31N 40°51' E 029°03'6 5.8
2014-Dec-27 08:33N 40°50' E 029°10'2 1.6
2014-Dec-27 07:30N 40°52' E 029°11'0 0.1
2014-Dec-27 06:30N 40°51' E 029°11'0 0.0
2014-Dec-27 05:24N 40°51' E 029°11'0 0.1
2014-Dec-27 04:30N 40°51' E 029°11'0 0.0
2014-Dec-27 03:30N 40°52' E 029°11'0 0.0
2014-Dec-27 02:30N 40°52' E 029°11'0 0.1
2014-Dec-27 01:30N 40°51' E 029°11'0 0.0
2014-Dec-27 00:24N 40°51' E 029°11'0 0.0
2014-Dec-26 23:24N 40°51' E 029°11'0 0.0
2014-Dec-26 21:30N 40°52' E 029°11'0 0.0
2014-Dec-26 20:30N 40°52' E 029°11'0 0.0
2014-Dec-26 19:24N 40°52' E 029°11'0 0.0
2014-Dec-26 18:18N 40°52' E 029°11'0 0.1
2014-Dec-26 17:24N 40°51' E 029°11'0 0.0
2014-Dec-26 16:18N 40°51' E 029°11'0 0.0
2014-Dec-26 15:24N 40°51' E 029°11'0 0.0
2014-Dec-26 14:24N 40°51' E 029°11'0 0.0
2014-Dec-26 13:30N 40°51' E 029°11'0 0.0
2014-Dec-26 12:30N 40°52' E 029°11'0 0.0
2014-Dec-26 11:24N 40°52' E 029°11'0 0.0
2014-Dec-26 10:24N 40°52' E 029°11'0 0.0
2014-Dec-26 09:18N 40°52' E 029°11'0 0.0
2014-Dec-26 08:30N 40°52' E 029°11'0 0.0
2014-Dec-26 07:30N 40°52' E 029°11'0 0.0
2014-Dec-26 06:18N 40°52' E 029°11'0 0.0
2014-Dec-26 05:30N 40°52' E 029°11'0 0.0
2014-Dec-26 04:30N 40°52' E 029°11'0 0.1
2014-Dec-26 03:18N 40°51' E 029°11'0 0.0
2014-Dec-26 02:24N 40°52' E 029°11'0 0.0
2014-Dec-26 01:18N 40°52' E 029°11'0 0.0
2014-Dec-26 00:24N 40°52' E 029°11'0 0.0
2014-Dec-25 23:24N 40°52' E 029°11'0 0.0
2014-Dec-25 22:30N 40°52' E 029°11'0 0.0
2014-Dec-25 21:30N 40°51' E 029°11'0 0.0
2014-Dec-25 20:30N 40°51' E 029°11'0 0.0
2014-Dec-25 19:30N 40°51' E 029°11'0 0.0
2014-Dec-25 18:30N 40°51' E 029°11'0 0.0
2014-Dec-25 17:30N 40°51' E 029°11'0 0.0
2014-Dec-25 16:24N 40°51' E 029°11'0 0.0
2014-Dec-25 15:30N 40°51' E 029°11'0 0.0
2014-Dec-25 12:12N 40°51' E 029°11'0 0.0
2014-Dec-25 11:30N 40°51' E 029°11'0 0.0
2014-Dec-25 10:30N 40°52' E 029°11'0 0.1
2014-Dec-25 09:30N 40°51' E 029°11'0 0.0
2014-Dec-25 08:30N 40°51' E 029°11'0 0.0
2014-Dec-25 07:30N 40°51' E 029°11'0 0.0
2014-Dec-25 06:30N 40°51' E 029°11'0 0.0
2014-Dec-25 05:30N 40°51' E 029°11'0 0.0
2014-Dec-25 04:30N 40°51' E 029°11'0 0.0
2014-Dec-25 03:30N 40°51' E 029°11'0 0.0
2014-Dec-25 02:30N 40°51' E 029°11'0 0.0
2014-Dec-25 01:30N 40°51' E 029°11'0 0.0
2014-Dec-25 00:30N 40°51' E 029°11'0 0.0
2014-Dec-24 23:24N 40°51' E 029°11'0 0.0
2014-Dec-24 22:30N 40°51' E 029°11'0 0.0
2014-Dec-24 21:32N 40°51' E 029°11'5 4.7
2014-Dec-24 20:33N 40°47' E 029°14'9 7.3
2014-Dec-24 19:22N 40°45' E 029°25'7 7.6
2014-Dec-24 18:30N 40°45' E 029°34'  
Track history (hours):
 
Tides and Currents Weather Stations Pressure Air Temp Water Temp Dewpoint Dewpoint Depression Visibility Wind Speed Wind Dir Waves Ship Positions

Armony

Last reported at 2014-Dec-30 12:29 UTC. Time now 2015-Jan-30 04:58 UTC.
Position N 40°51' E 029°17'.
Warning: this ship's position is 30 days out of date.

Length 70 m; draft 4.6 m.

Type: Ship. MMSI: 677041700.

Date/timePositionNaut miles runAvg speedWind from/ knotsBaromVisibWave heightAir tempDewpointWater temp
2014-Dec-30 12:29N 40°51' E 029°17'0 0.0
2014-Dec-30 11:31N 40°51' E 029°17'0 0.0
2014-Dec-30 10:31N 40°51' E 029°17'0 0.0
2014-Dec-30 09:31N 40°51' E 029°17'0 0.0
2014-Dec-30 08:31N 40°51' E 029°17'0 0.0
2014-Dec-30 07:31N 40°51' E 029°17'0 0.0
2014-Dec-30 06:25N 40°51' E 029°17'0 0.0
2014-Dec-30 05:31N 40°51' E 029°17'0 0.0
2014-Dec-30 04:31N 40°51' E 029°17'0 0.0
2014-Dec-30 03:19N 40°51' E 029°17'0 0.0
2014-Dec-30 02:31N 40°51' E 029°17'0 0.0
2014-Dec-30 01:31N 40°51' E 029°17'0 0.0
2014-Dec-30 00:31N 40°51' E 029°17'0 0.0
2014-Dec-29 23:31N 40°51' E 029°17'0 0.0
2014-Dec-29 22:25N 40°51' E 029°17'0 0.0
2014-Dec-29 21:25N 40°51' E 029°17'0 0.0
2014-Dec-29 20:31N 40°51' E 029°17'0 0.0
2014-Dec-29 19:31N 40°51' E 029°17'0 0.0
2014-Dec-29 18:31N 40°51' E 029°17'0 0.0
2014-Dec-29 17:31N 40°51' E 029°17'0 0.0
2014-Dec-29 16:31N 40°51' E 029°17'0 0.0
2014-Dec-29 15:25N 40°51' E 029°17'0 0.0
2014-Dec-29 14:31N 40°51' E 029°17'0 0.0
2014-Dec-29 13:31N 40°51' E 029°17'0 0.0
2014-Dec-29 12:31N 40°51' E 029°17'0 0.0
2014-Dec-29 11:31N 40°51' E 029°17'0 0.0
2014-Dec-29 10:31N 40°51' E 029°17'0 0.0
2014-Dec-29 09:31N 40°51' E 029°17'0 0.0
2014-Dec-29 08:25N 40°51' E 029°17'3 0.1
2014-Dec-27 22:18N 40°50' E 029°14'0 0.0
2014-Dec-27 21:33N 40°50' E 029°14'0 0.0
2014-Dec-27 20:33N 40°50' E 029°14'0 0.0
2014-Dec-27 19:33N 40°50' E 029°14'0 0.0
2014-Dec-27 18:33N 40°50' E 029°14'0 0.0
2014-Dec-27 17:33N 40°50' E 029°14'0 0.0
2014-Dec-27 16:32N 40°50' E 029°14'0 0.3
2014-Dec-27 15:33N 40°50' E 029°14'3 3.1
2014-Dec-27 14:33N 40°50' E 029°10'3 3.4
2014-Dec-27 13:33N 40°49' E 029°05'3 3.1
2014-Dec-27 12:33N 40°50' E 029°01'2 1.5
2014-Dec-27 11:33N 40°51' E 029°00'3 2.6
2014-Dec-27 10:32N 40°53' E 028°58'4 4.2
2014-Dec-27 09:31N 40°51' E 029°03'6 5.8
2014-Dec-27 08:33N 40°50' E 029°10'2 1.6
2014-Dec-27 07:30N 40°52' E 029°11'0 0.1
2014-Dec-27 06:30N 40°51' E 029°11'0 0.0
2014-Dec-27 05:24N 40°51' E 029°11'0 0.1
2014-Dec-27 04:30N 40°51' E 029°11'0 0.0
2014-Dec-27 03:30N 40°52' E 029°11'0 0.0
2014-Dec-27 02:30N 40°52' E 029°11'0 0.1
2014-Dec-27 01:30N 40°51' E 029°11'0 0.0
2014-Dec-27 00:24N 40°51' E 029°11'0 0.0
2014-Dec-26 23:24N 40°51' E 029°11'0 0.0
2014-Dec-26 21:30N 40°52' E 029°11'0 0.0
2014-Dec-26 20:30N 40°52' E 029°11'0 0.0
2014-Dec-26 19:24N 40°52' E 029°11'0 0.0
2014-Dec-26 18:18N 40°52' E 029°11'0 0.1
2014-Dec-26 17:24N 40°51' E 029°11'0 0.0
2014-Dec-26 16:18N 40°51' E 029°11'0 0.0
2014-Dec-26 15:24N 40°51' E 029°11'0 0.0
2014-Dec-26 14:24N 40°51' E 029°11'0 0.0
2014-Dec-26 13:30N 40°51' E 029°11'0 0.0
2014-Dec-26 12:30N 40°52' E 029°11'0 0.0
2014-Dec-26 11:24N 40°52' E 029°11'0 0.0
2014-Dec-26 10:24N 40°52' E 029°11'0 0.0
2014-Dec-26 09:18N 40°52' E 029°11'0 0.0
2014-Dec-26 08:30N 40°52' E 029°11'0 0.0
2014-Dec-26 07:30N 40°52' E 029°11'0 0.0
2014-Dec-26 06:18N 40°52' E 029°11'0 0.0
2014-Dec-26 05:30N 40°52' E 029°11'0 0.0
2014-Dec-26 04:30N 40°52' E 029°11'0 0.1
2014-Dec-26 03:18N 40°51' E 029°11'0 0.0
2014-Dec-26 02:24N 40°52' E 029°11'0 0.0
2014-Dec-26 01:18N 40°52' E 029°11'0 0.0
2014-Dec-26 00:24N 40°52' E 029°11'0 0.0
2014-Dec-25 23:24N 40°52' E 029°11'0 0.0
2014-Dec-25 22:30N 40°52' E 029°11'0 0.0
2014-Dec-25 21:30N 40°51' E 029°11'0 0.0
2014-Dec-25 20:30N 40°51' E 029°11'0 0.0
2014-Dec-25 19:30N 40°51' E 029°11'0 0.0
2014-Dec-25 18:30N 40°51' E 029°11'0 0.0
2014-Dec-25 17:30N 40°51' E 029°11'0 0.0
2014-Dec-25 16:24N 40°51' E 029°11'0 0.0
2014-Dec-25 15:30N 40°51' E 029°11'0 0.0
2014-Dec-25 12:12N 40°51' E 029°11'0 0.0
2014-Dec-25 11:30N 40°51' E 029°11'0 0.0
2014-Dec-25 10:30N 40°52' E 029°11'0 0.1
2014-Dec-25 09:30N 40°51' E 029°11'0 0.0
2014-Dec-25 08:30N 40°51' E 029°11'0 0.0
2014-Dec-25 07:30N 40°51' E 029°11'0 0.0
2014-Dec-25 06:30N 40°51' E 029°11'0 0.0
2014-Dec-25 05:30N 40°51' E 029°11'0 0.0
2014-Dec-25 04:30N 40°51' E 029°11'0 0.0
2014-Dec-25 03:30N 40°51' E 029°11'0 0.0
2014-Dec-25 02:30N 40°51' E 029°11'0 0.0
2014-Dec-25 01:30N 40°51' E 029°11'0 0.0
2014-Dec-25 00:30N 40°51' E 029°11'0 0.0
2014-Dec-24 23:24N 40°51' E 029°11'0 0.0
2014-Dec-24 22:30N 40°51' E 029°11'0 0.0
2014-Dec-24 21:32N 40°51' E 029°11'5 4.7
2014-Dec-24 20:33N 40°47' E 029°14'9 7.3
2014-Dec-24 19:22N 40°45' E 029°25'7 7.6
2014-Dec-24 18:30N 40°45' E 029°34'  

Dump ship's entire track history